createdAt,value
2023-02-25T00:02:04.021Z,95445.41
2023-02-25T00:06:05.588Z,95460.25
2023-02-25T00:10:06.473Z,95459.63
2023-02-25T00:14:09.906Z,95456.19
2023-02-25T00:18:10.511Z,95452.84
2023-02-25T00:22:11.690Z,95460.38
2023-02-25T00:26:16.502Z,95469.09
2023-02-25T00:30:20.999Z,95467.50
2023-02-25T00:34:21.426Z,95476.81
2023-02-25T00:38:23.029Z,95480.28
2023-02-25T00:42:26.647Z,95470.56
2023-02-25T00:46:32.376Z,95459.06
2023-02-25T00:50:33.576Z,95481.47
2023-02-25T00:54:34.221Z,95476.19
2023-02-25T00:58:39.852Z,95475.38
2023-02-25T01:02:43.291Z,95478.16
2023-02-25T01:06:44.664Z,95480.78
2023-02-25T01:10:45.679Z,95477.59
2023-02-25T01:14:46.281Z,95474.31
2023-02-25T01:18:50.660Z,95486.34
2023-02-25T01:22:51.776Z,95480.50
2023-02-25T01:26:55.733Z,95477.75
2023-02-25T01:30:56.343Z,95481.09
2023-02-25T01:35:01.345Z,95463.94
2023-02-25T01:39:05.093Z,95477.81
2023-02-25T01:43:08.035Z,95480.94
2023-02-25T01:47:10.420Z,95466.69
2023-02-25T01:51:16.117Z,95480.78
2023-02-25T01:55:17.168Z,95478.75
2023-02-25T01:59:20.000Z,95472.59
2023-02-25T02:03:20.602Z,95480.44
2023-02-25T02:07:26.509Z,95473.94
2023-02-25T02:11:26.922Z,95461.31
2023-02-25T02:15:28.239Z,95477.88
2023-02-25T02:19:46.858Z,95475.03
2023-02-25T02:24:42.432Z,95474.94
2023-02-25T02:29:23.481Z,95477.88
2023-02-25T02:33:38.900Z,95481.94
2023-02-25T02:37:50.313Z,95459.53
2023-02-25T02:42:02.478Z,95485.97
2023-02-25T02:46:11.726Z,95468.44
2023-02-25T02:50:26.919Z,95489.34
2023-02-25T02:54:34.516Z,95489.88
2023-02-25T02:58:40.955Z,95491.31
2023-02-25T03:02:45.311Z,95506.28
2023-02-25T03:06:54.259Z,95510.09
2023-02-25T03:10:55.756Z,95512.91
2023-02-25T03:14:56.403Z,95516.66
2023-02-25T03:19:05.876Z,95514.59
2023-02-25T03:23:15.631Z,95519.69
2023-02-25T03:27:35.111Z,95527.97
2023-02-25T03:31:48.642Z,95522.75
2023-02-25T03:35:52.935Z,95528.34
2023-02-25T03:40:07.490Z,95522.81
2023-02-25T03:44:15.814Z,95524.25
2023-02-25T03:48:19.919Z,95535.50
2023-02-25T03:52:28.245Z,95534.13
2023-02-25T03:56:46.235Z,95532.66
2023-02-25T04:00:50.662Z,95549.72
2023-02-25T04:04:51.381Z,95544.69
2023-02-25T04:08:53.569Z,95546.44
2023-02-25T04:12:56.743Z,95536.84
2023-02-25T04:16:57.187Z,95538.38
2023-02-25T04:20:58.261Z,95540.19
2023-02-25T04:24:58.790Z,95552.63
2023-02-25T04:29:02.618Z,95557.56
2023-02-25T04:33:03.059Z,95556.31
2023-02-25T04:37:05.835Z,95568.31
2023-02-25T04:41:06.380Z,95573.94
2023-02-25T04:45:12.599Z,95574.06
2023-02-25T04:49:13.841Z,95578.06
2023-02-25T04:53:14.328Z,95579.41
2023-02-25T04:57:15.610Z,95573.16
2023-02-25T05:01:19.217Z,95570.34
2023-02-25T05:05:21.327Z,95569.34
2023-02-25T05:09:21.942Z,95577.03
2023-02-25T05:13:23.601Z,95574.75
2023-02-25T05:17:26.862Z,95573.22
2023-02-25T05:21:29.767Z,95568.78
2023-02-25T05:25:30.238Z,95574.34
2023-02-25T05:29:30.771Z,95572.06
2023-02-25T05:33:34.386Z,95585.22
2023-02-25T05:37:35.582Z,95591.88
2023-02-25T05:41:35.938Z,95574.09
2023-02-25T05:45:36.468Z,95582.25
2023-02-25T05:49:39.756Z,95594.44
2023-02-25T05:53:40.893Z,95601.13
2023-02-25T05:57:41.850Z,95605.38
2023-02-25T06:01:42.586Z,95600.94
2023-02-25T06:05:48.064Z,95595.34
2023-02-25T06:09:48.962Z,95587.69
2023-02-25T06:13:52.960Z,95586.16
2023-02-25T06:17:53.824Z,95599.53
2023-02-25T06:21:57.145Z,95608.69
2023-02-25T06:25:59.739Z,95606.13
2023-02-25T06:30:03.036Z,95618.63
2023-02-25T06:34:06.343Z,95628.25
2023-02-25T06:38:09.509Z,95628.53
2023-02-25T06:42:10.022Z,95622.25
2023-02-25T06:46:14.934Z,95643.50
2023-02-25T06:50:16.124Z,95658.03
2023-02-25T06:54:20.144Z,95640.78
2023-02-25T06:58:20.716Z,95659.16
2023-02-25T07:02:20.994Z,95648.28
2023-02-25T07:06:22.361Z,95657.56
2023-02-25T07:10:25.884Z,95650.88
2023-02-25T07:14:26.912Z,95663.25
2023-02-25T07:18:27.500Z,95659.00
2023-02-25T07:22:28.087Z,95632.09
2023-02-25T07:26:31.178Z,95675.81
2023-02-25T07:30:31.874Z,95664.75
2023-02-25T07:34:32.582Z,95667.59
2023-02-25T07:38:33.142Z,95667.69
2023-02-25T07:42:37.228Z,95665.66
2023-02-25T07:46:41.195Z,95665.81
2023-02-25T07:50:41.667Z,95673.59
2023-02-25T07:54:42.283Z,95543.56
2023-02-25T07:58:46.104Z,95672.78
2023-02-25T08:02:47.881Z,95674.69
2023-02-25T08:06:48.941Z,95685.88
2023-02-25T08:10:49.519Z,95686.41
2023-02-25T08:14:52.563Z,95688.81
2023-02-25T08:18:53.152Z,95682.63
2023-02-25T08:22:57.286Z,95658.69
2023-02-25T08:26:57.773Z,95665.06
2023-02-25T08:31:03.201Z,95678.31
2023-02-25T08:35:04.528Z,95663.28
2023-02-25T08:39:05.413Z,95668.94
2023-02-25T08:43:05.971Z,95669.41
2023-02-25T08:47:09.499Z,95669.94
2023-02-25T08:51:15.002Z,95670.38
2023-02-25T08:55:16.247Z,95674.66
2023-02-25T08:59:18.689Z,95679.16
2023-02-25T09:03:22.407Z,95671.38
2023-02-25T09:07:23.729Z,95667.53
2023-02-25T09:11:26.555Z,95684.72
2023-02-25T09:15:27.613Z,95688.66
2023-02-25T09:19:31.279Z,95692.34
2023-02-25T09:23:32.135Z,95692.09
2023-02-25T09:27:32.848Z,95677.25
2023-02-25T09:31:37.291Z,95683.28
2023-02-25T09:35:41.049Z,95685.34
2023-02-25T09:39:43.234Z,95689.13
2023-02-25T09:43:46.901Z,95689.72
2023-02-25T09:47:55.896Z,95697.34
2023-02-25T09:52:06.379Z,95706.50
2023-02-25T09:56:11.263Z,95692.09
2023-02-25T10:00:23.851Z,95703.06
2023-02-25T10:04:35.362Z,95701.91
2023-02-25T10:08:51.075Z,95698.47
2023-02-25T10:13:05.208Z,95697.09
2023-02-25T10:17:19.283Z,95701.34
2023-02-25T10:21:35.348Z,95690.47
2023-02-25T10:25:47.533Z,95708.19
2023-02-25T10:29:52.893Z,95682.63
2023-02-25T10:33:57.016Z,95698.59
2023-02-25T10:37:57.964Z,95658.75
2023-02-25T10:42:01.883Z,95693.22
2023-02-25T10:46:11.529Z,95690.53
2023-02-25T10:50:20.428Z,95693.16
2023-02-25T10:54:20.703Z,95696.41
2023-02-25T10:58:40.958Z,95712.22
2023-02-25T11:02:47.055Z,95696.78
2023-02-25T11:06:49.454Z,95706.50
2023-02-25T11:11:07.729Z,95696.41
2023-02-25T11:15:44.805Z,95693.69
2023-02-25T11:19:57.740Z,95693.34
2023-02-25T11:24:04.136Z,95679.63
2023-02-25T11:28:09.865Z,95675.53
2023-02-25T11:32:21.239Z,95667.97
2023-02-25T11:36:27.030Z,95657.00
2023-02-25T11:40:32.062Z,95660.66
2023-02-25T11:44:45.667Z,95678.25
2023-02-25T11:48:56.091Z,95653.47
2023-02-25T11:53:10.056Z,95659.28
2023-02-25T11:57:21.115Z,95652.06
2023-02-25T12:01:37.749Z,95647.63
2023-02-25T12:06:04.052Z,95663.56
2023-02-25T12:10:58.781Z,95668.25
2023-02-25T12:15:52.854Z,95654.88
2023-02-25T12:20:34.922Z,95652.81
2023-02-25T12:25:14.428Z,95651.88
2023-02-25T12:29:52.088Z,95662.28
2023-02-25T12:34:23.752Z,95672.31
2023-02-25T12:39:12.082Z,95676.69
2023-02-25T12:43:36.613Z,95667.81
2023-02-25T12:48:04.661Z,95666.88
2023-02-25T12:52:36.575Z,95675.56
2023-02-25T12:57:17.463Z,95654.94
2023-02-25T13:01:53.496Z,95674.38
2023-02-25T13:12:11.632Z,95667.25
2023-02-25T13:16:32.814Z,95680.13
2023-02-25T13:21:40.797Z,95684.31
2023-02-25T13:26:49.063Z,95693.91
2023-02-25T13:31:07.237Z,95710.59
2023-02-25T13:35:35.501Z,95695.97
2023-02-25T13:40:08.375Z,95713.34
2023-02-25T13:44:36.014Z,95721.03
2023-02-25T13:49:22.850Z,95720.88
2023-02-25T13:53:59.717Z,95723.25
2023-02-25T13:58:28.817Z,95722.81
2023-02-25T14:03:30.141Z,95723.16
2023-02-25T14:07:56.132Z,95726.00
2023-02-25T14:12:13.144Z,95717.06
2023-02-25T14:16:34.750Z,95732.94
2023-02-25T14:20:49.197Z,95728.53
2023-02-25T14:25:05.478Z,95721.66
2023-02-25T14:29:28.288Z,95727.13
2023-02-25T14:34:18.544Z,95734.59
2023-02-25T14:38:29.994Z,95748.88
2023-02-25T14:43:06.250Z,95764.03
2023-02-25T14:47:18.296Z,95764.38
2023-02-25T14:51:50.282Z,95761.47
2023-02-25T14:56:35.840Z,95777.34
2023-02-25T15:01:01.832Z,95785.88
2023-02-25T15:05:50.252Z,95774.97
2023-02-25T15:10:20.546Z,95788.75
2023-02-25T15:15:22.691Z,95786.38
2023-02-25T15:19:58.478Z,95788.97
2023-02-25T15:24:00.201Z,95786.53
2023-02-25T15:28:02.745Z,95793.03
2023-02-25T15:32:24.555Z,95786.41
2023-02-25T15:36:45.090Z,95806.47
2023-02-25T15:40:51.895Z,95788.09
2023-02-25T15:44:53.772Z,95814.47
2023-02-25T15:49:10.417Z,95817.88
2023-02-25T15:53:36.028Z,95829.09
2023-02-25T15:57:42.057Z,95822.81
2023-02-25T16:01:46.518Z,95819.63
2023-02-25T16:05:49.893Z,95826.31
2023-02-25T16:10:01.559Z,95831.19
2023-02-25T16:14:05.871Z,95827.44
2023-02-25T16:18:23.393Z,95839.28
2023-02-25T16:22:31.203Z,95847.59
2023-02-25T16:26:47.891Z,95850.28
2023-02-25T16:31:00.230Z,95849.16
2023-02-25T16:35:12.620Z,95849.22
2023-02-25T16:39:21.805Z,95870.56
2023-02-25T16:43:30.194Z,95867.16
2023-02-25T16:47:35.829Z,95876.63
2023-02-25T16:51:41.502Z,95879.88
2023-02-25T16:55:43.851Z,95893.94
2023-02-25T16:59:47.508Z,95899.56
2023-02-25T17:03:49.531Z,95909.59
2023-02-25T17:07:59.841Z,95914.03
2023-02-25T17:12:03.030Z,95922.06
2023-02-25T17:16:08.804Z,95932.91
2023-02-25T17:20:18.331Z,95937.34
2023-02-25T17:24:24.114Z,95954.63
2023-02-25T17:28:28.009Z,95959.22
2023-02-25T17:32:35.271Z,95981.31
2023-02-25T17:36:41.383Z,95979.91
2023-02-25T17:40:42.616Z,95992.78
2023-02-25T17:44:49.567Z,96004.59
2023-02-25T17:48:59.631Z,95985.28
2023-02-25T17:53:01.254Z,95996.38
2023-02-25T17:57:05.046Z,95998.78
2023-02-25T18:01:06.030Z,96000.41
2023-02-25T18:05:28.754Z,95989.53
2023-02-25T18:09:41.599Z,96013.03
2023-02-25T18:13:42.304Z,96017.63
2023-02-25T18:17:46.064Z,96030.09
2023-02-25T18:21:50.215Z,96015.16
2023-02-25T18:26:13.090Z,96012.41
2023-02-25T18:30:25.058Z,96035.72
2023-02-25T18:34:25.841Z,96043.97
2023-02-25T18:38:33.312Z,96032.88
2023-02-25T18:42:33.699Z,96044.56
2023-02-25T18:46:34.352Z,96058.81
2023-02-25T18:50:37.585Z,96038.44
2023-02-25T18:54:41.791Z,96066.19
2023-02-25T18:58:43.268Z,96059.34
2023-02-25T19:02:53.970Z,96050.84
2023-02-25T19:06:54.667Z,96043.97
2023-02-25T19:10:58.469Z,96040.38
2023-02-25T19:15:02.767Z,96073.72
2023-02-25T19:19:03.124Z,96075.72
2023-02-25T19:23:04.723Z,96064.06
2023-02-25T19:27:08.146Z,96053.31
2023-02-25T19:31:10.064Z,96082.72
2023-02-25T19:35:12.297Z,96077.88
2023-02-25T19:39:12.985Z,96078.81
2023-02-25T19:43:18.623Z,96097.16
2023-02-25T19:47:19.030Z,96097.66
2023-02-25T19:51:19.528Z,96103.13
2023-02-25T19:55:20.789Z,96113.41
2023-02-25T19:59:24.622Z,96118.53
2023-02-25T20:03:25.366Z,96114.69
2023-02-25T20:07:26.499Z,96133.81
2023-02-25T20:11:27.297Z,96135.44
2023-02-25T20:15:31.055Z,96141.25
2023-02-25T20:19:33.125Z,96149.09
2023-02-25T20:23:34.513Z,96136.22
2023-02-25T20:27:37.201Z,96129.75
2023-02-25T20:31:40.485Z,96141.34
2023-02-25T20:35:41.942Z,96160.25
2023-02-25T20:39:56.624Z,96158.50
2023-02-25T20:43:57.519Z,96158.31
2023-02-25T20:48:03.578Z,96152.34
2023-02-25T20:52:04.990Z,96164.63
2023-02-25T20:56:06.134Z,96163.41
2023-02-25T21:00:16.520Z,96173.84
2023-02-25T21:04:20.130Z,96174.59
2023-02-25T21:08:20.881Z,96164.78
2023-02-25T21:12:21.724Z,96187.03
2023-02-25T21:16:24.188Z,96190.81
2023-02-25T21:20:30.189Z,96201.66
2023-02-25T21:24:33.888Z,96197.00
2023-02-25T21:28:35.336Z,96207.00
2023-02-25T21:32:35.916Z,96192.00
2023-02-25T21:36:39.662Z,96215.34
2023-02-25T21:40:40.232Z,96225.06
2023-02-25T21:44:40.596Z,96226.72
2023-02-25T21:48:42.828Z,96225.84
2023-02-25T21:52:45.870Z,96231.06
2023-02-25T21:56:46.598Z,96234.66
2023-02-25T22:00:47.086Z,96230.19
2023-02-25T22:04:50.083Z,96236.13
2023-02-25T22:08:54.592Z,96193.78
2023-02-25T22:12:55.793Z,96220.44
2023-02-25T22:16:56.470Z,96226.00
2023-02-25T22:21:05.678Z,96229.41
2023-02-25T22:25:10.116Z,96201.53
2023-02-25T22:29:12.482Z,96221.00
2023-02-25T22:33:13.296Z,96219.47
2023-02-25T22:37:13.991Z,96229.88
2023-02-25T22:41:20.872Z,96228.91
2023-02-25T22:45:21.642Z,96237.53
2023-02-25T22:49:22.415Z,96229.72
2023-02-25T22:53:22.722Z,96232.88
2023-02-25T22:57:25.991Z,96237.06
2023-02-25T23:01:29.000Z,96244.59
2023-02-25T23:05:29.559Z,96228.00
2023-02-25T23:09:30.237Z,96249.03
2023-02-25T23:13:33.517Z,96246.59
2023-02-25T23:17:34.418Z,96248.25
2023-02-25T23:21:39.288Z,96249.91
2023-02-25T23:25:43.776Z,96250.41
2023-02-25T23:29:46.873Z,96251.22
2023-02-25T23:33:47.280Z,96254.38
2023-02-25T23:37:48.274Z,96265.34
2023-02-25T23:46:12.547Z,96270.56
2023-02-25T23:50:16.083Z,96265.03
2023-02-25T23:54:20.913Z,96269.94
2023-02-25T23:58:21.523Z,96268.94
